createdAt,value
2023-04-16T00:00:55.039Z,100.00
2023-04-16T00:03:22.864Z,100.00
2023-04-16T00:05:55.769Z,100.00
2023-04-16T00:08:24.595Z,100.00
2023-04-16T00:10:52.312Z,100.00
2023-04-16T00:13:19.883Z,100.00
2023-04-16T00:15:47.485Z,100.00
2023-04-16T00:18:15.086Z,100.00
2023-04-16T00:20:42.792Z,100.00
2023-04-16T00:23:11.748Z,94.60
2023-04-16T00:25:39.385Z,100.00
2023-04-16T00:28:07.568Z,100.00
2023-04-16T00:30:36.206Z,100.00
2023-04-16T00:33:04.714Z,100.00
2023-04-16T00:35:32.419Z,100.00
2023-04-16T00:38:00.531Z,100.00
2023-04-16T00:40:29.806Z,100.00
2023-04-16T00:42:57.530Z,100.00
2023-04-16T00:45:25.171Z,100.00
2023-04-16T00:47:52.896Z,100.00
2023-04-16T00:50:20.805Z,100.00
2023-04-16T00:52:48.535Z,100.00
2023-04-16T00:55:17.642Z,100.00
2023-04-16T00:57:46.757Z,91.79
2023-04-16T01:00:14.728Z,100.00
2023-04-16T01:02:42.671Z,91.45
2023-04-16T01:05:10.442Z,100.00
2023-04-16T01:07:38.222Z,94.08
2023-04-16T01:10:06.028Z,99.44
2023-04-16T01:12:33.670Z,97.62
2023-04-16T01:15:02.616Z,93.06
2023-04-16T01:17:30.297Z,82.72
2023-04-16T01:19:59.258Z,93.51
2023-04-16T01:22:28.319Z,80.27
2023-04-16T01:24:56.037Z,86.84
2023-04-16T01:27:26.995Z,99.65
2023-04-16T01:29:56.254Z,82.75
2023-04-16T01:32:33.233Z,81.30
2023-04-16T01:35:00.890Z,97.36
2023-04-16T01:37:29.881Z,90.99
2023-04-16T01:39:57.619Z,81.94
2023-04-16T01:42:25.373Z,86.82
2023-04-16T01:44:53.122Z,86.95
2023-04-16T01:47:20.919Z,83.77
2023-04-16T01:49:48.532Z,80.12
2023-04-16T01:52:16.149Z,76.14
2023-04-16T01:54:45.164Z,91.98
2023-04-16T01:57:12.923Z,83.49
2023-04-16T01:59:40.619Z,99.41
2023-04-16T02:02:11.080Z,90.53
2023-04-16T02:04:39.606Z,100.00
2023-04-16T02:07:08.944Z,84.13
2023-04-16T02:09:36.849Z,85.14
2023-04-16T02:12:09.560Z,94.55
2023-04-16T02:14:37.189Z,80.43
2023-04-16T02:17:06.031Z,100.00
2023-04-16T02:19:39.822Z,100.00
2023-04-16T02:22:09.316Z,92.51
2023-04-16T02:24:37.054Z,100.00
2023-04-16T02:27:10.694Z,100.00
2023-04-16T02:29:38.541Z,100.00
2023-04-16T02:32:13.242Z,100.00
2023-04-16T02:34:44.918Z,100.00
2023-04-16T02:37:15.386Z,100.00
2023-04-16T02:39:44.093Z,100.00
2023-04-16T02:42:13.248Z,100.00
2023-04-16T02:44:40.928Z,100.00
2023-04-16T02:47:08.554Z,100.00
2023-04-16T02:49:36.745Z,100.00
2023-04-16T02:52:04.391Z,100.00
2023-04-16T02:54:32.072Z,94.33
2023-04-16T02:56:59.772Z,93.20
2023-04-16T02:59:28.834Z,100.00
2023-04-16T03:01:56.660Z,98.77
2023-04-16T03:04:24.405Z,100.00
2023-04-16T03:06:52.091Z,92.94
2023-04-16T03:09:19.709Z,100.00
2023-04-16T03:11:47.407Z,97.09
2023-04-16T03:14:15.006Z,99.37
2023-04-16T03:16:43.995Z,94.07
2023-04-16T03:19:11.816Z,92.63
2023-04-16T03:21:39.629Z,100.00
2023-04-16T03:24:07.271Z,100.00
2023-04-16T03:26:34.940Z,88.94
2023-04-16T03:29:03.012Z,84.68
2023-04-16T03:31:32.516Z,97.46
2023-04-16T03:34:02.241Z,100.00
2023-04-16T03:36:32.550Z,100.00
2023-04-16T03:39:00.289Z,100.00
2023-04-16T03:41:29.553Z,100.00
2023-04-16T03:43:57.369Z,100.00
2023-04-16T03:46:25.033Z,100.00
2023-04-16T03:48:53.284Z,100.00
2023-04-16T03:51:22.297Z,100.00
2023-04-16T03:53:49.903Z,100.00
2023-04-16T03:56:18.782Z,97.88
2023-04-16T03:58:46.458Z,100.00
2023-04-16T04:01:14.152Z,100.00
2023-04-16T04:03:42.400Z,100.00
2023-04-16T04:06:11.046Z,100.00
2023-04-16T04:08:40.023Z,100.00
2023-04-16T04:11:08.262Z,100.00
2023-04-16T04:13:36.714Z,100.00
2023-04-16T04:16:05.083Z,100.00
2023-04-16T04:18:33.251Z,100.00
2023-04-16T04:21:01.151Z,100.00
2023-04-16T04:23:31.933Z,100.00
2023-04-16T04:26:03.635Z,100.00
2023-04-16T04:28:31.435Z,100.00
2023-04-16T04:30:59.828Z,85.42
2023-04-16T04:33:27.489Z,100.00
2023-04-16T04:35:55.759Z,100.00
2023-04-16T04:38:25.190Z,100.00
2023-04-16T04:40:53.473Z,100.00
2023-04-16T04:43:24.157Z,100.00
2023-04-16T04:45:51.978Z,91.46
2023-04-16T04:48:19.707Z,100.00
2023-04-16T04:50:47.678Z,100.00
2023-04-16T04:53:15.356Z,100.00
2023-04-16T04:55:43.850Z,92.75
2023-04-16T04:58:11.468Z,93.49
2023-04-16T05:00:43.887Z,100.00
2023-04-16T05:03:12.258Z,100.00
2023-04-16T05:05:40.031Z,86.80
2023-04-16T05:08:07.721Z,100.00
2023-04-16T05:10:35.359Z,90.02
2023-04-16T05:13:03.004Z,85.69
2023-04-16T05:15:30.665Z,93.44
2023-04-16T05:17:59.675Z,89.99
2023-04-16T05:20:27.328Z,88.42
2023-04-16T05:22:55.376Z,96.54
2023-04-16T05:25:23.302Z,95.23
2023-04-16T05:27:50.905Z,84.98
2023-04-16T05:30:19.061Z,97.26
2023-04-16T05:32:46.730Z,91.79
2023-04-16T05:35:17.546Z,82.73
2023-04-16T05:37:45.563Z,100.00
2023-04-16T05:40:14.463Z,84.10
2023-04-16T05:42:42.100Z,100.00
2023-04-16T05:45:10.595Z,86.56
2023-04-16T05:47:38.289Z,100.00
2023-04-16T05:50:06.318Z,98.65
2023-04-16T05:52:35.306Z,92.06
2023-04-16T05:55:03.352Z,92.02
2023-04-16T05:57:31.046Z,90.51
2023-04-16T05:59:58.631Z,87.29
2023-04-16T06:02:26.431Z,100.00
2023-04-16T06:04:54.127Z,100.00
2023-04-16T06:07:21.770Z,91.07
2023-04-16T06:09:50.769Z,94.50
2023-04-16T06:12:18.406Z,100.00
2023-04-16T06:14:46.211Z,100.00
2023-04-16T06:17:13.814Z,100.00
2023-04-16T06:19:41.414Z,95.80
2023-04-16T06:22:09.004Z,84.94
2023-04-16T06:24:36.644Z,85.55
2023-04-16T06:27:05.640Z,99.77
2023-04-16T06:29:40.352Z,100.00
2023-04-16T06:32:09.442Z,84.68
2023-04-16T06:34:37.042Z,82.29
2023-04-16T06:37:04.626Z,100.00
2023-04-16T06:39:32.196Z,99.40
2023-04-16T06:41:59.851Z,100.00
2023-04-16T06:44:28.935Z,96.60
2023-04-16T06:46:56.563Z,89.17
2023-04-16T06:49:24.179Z,98.05
2023-04-16T06:51:51.802Z,95.58
2023-04-16T06:54:19.839Z,99.48
2023-04-16T06:56:47.467Z,100.00
2023-04-16T06:59:15.131Z,92.25
2023-04-16T07:01:44.250Z,88.38
2023-04-16T07:04:12.965Z,91.82
2023-04-16T07:06:40.718Z,100.00
2023-04-16T07:09:08.635Z,100.00
2023-04-16T07:11:36.383Z,90.27
2023-04-16T07:14:04.006Z,85.25
2023-04-16T07:16:31.658Z,87.70
2023-04-16T07:19:00.644Z,88.30
2023-04-16T07:21:28.305Z,100.00
2023-04-16T07:23:55.975Z,100.00
2023-04-16T07:26:23.613Z,100.00
2023-04-16T07:28:51.199Z,100.00
2023-04-16T07:31:18.911Z,89.33
2023-04-16T07:33:46.606Z,81.32
2023-04-16T07:36:15.619Z,90.33
2023-04-16T07:38:43.214Z,88.14
2023-04-16T07:41:10.806Z,94.65
2023-04-16T07:43:38.508Z,88.55
2023-04-16T07:46:06.313Z,91.80
2023-04-16T07:48:34.004Z,94.79
2023-04-16T07:51:01.664Z,97.36
2023-04-16T07:53:30.612Z,97.94
2023-04-16T07:55:58.230Z,91.64
2023-04-16T07:58:25.885Z,79.21
2023-04-16T08:00:53.502Z,73.89
2023-04-16T08:03:21.303Z,79.91
2023-04-16T08:05:49.078Z,90.36
2023-04-16T08:08:16.725Z,90.94
2023-04-16T08:10:45.853Z,89.84
2023-04-16T08:13:13.538Z,94.94
2023-04-16T08:15:41.478Z,88.29
2023-04-16T08:18:12.836Z,85.96
2023-04-16T08:20:40.530Z,99.31
2023-04-16T08:23:08.159Z,96.58
2023-04-16T08:25:36.466Z,100.00
2023-04-16T08:28:05.717Z,93.74
2023-04-16T08:30:33.323Z,93.46
2023-04-16T08:33:01.201Z,92.85
2023-04-16T08:35:28.904Z,89.82
2023-04-16T08:37:57.867Z,81.53
2023-04-16T08:40:26.111Z,70.88
2023-04-16T08:42:55.679Z,73.65
2023-04-16T08:45:24.606Z,98.73
2023-04-16T08:47:52.587Z,96.10
2023-04-16T08:50:23.931Z,82.54
2023-04-16T08:52:52.423Z,91.03
2023-04-16T08:55:20.887Z,100.00
2023-04-16T08:57:49.304Z,96.47
2023-04-16T09:00:17.120Z,90.90
2023-04-16T09:02:46.377Z,100.00
2023-04-16T09:05:17.024Z,85.58
2023-04-16T09:07:45.365Z,92.88
2023-04-16T09:10:13.092Z,84.36
2023-04-16T09:12:42.842Z,98.04
2023-04-16T09:15:11.255Z,89.99
2023-04-16T09:17:38.984Z,100.00
2023-04-16T09:20:10.793Z,99.91
2023-04-16T09:22:38.707Z,100.00
2023-04-16T09:25:06.933Z,100.00
2023-04-16T09:27:34.623Z,99.89
2023-04-16T09:30:02.245Z,100.00
2023-04-16T09:32:29.921Z,96.78
2023-04-16T09:34:58.303Z,100.00
2023-04-16T09:37:29.499Z,93.36
2023-04-16T09:39:57.934Z,97.99
2023-04-16T09:42:27.356Z,90.89
2023-04-16T09:44:56.226Z,89.16
2023-04-16T09:47:25.634Z,90.03
2023-04-16T09:49:53.346Z,82.77
2023-04-16T09:52:21.661Z,80.53
2023-04-16T09:54:51.156Z,75.85
2023-04-16T09:57:22.444Z,81.78
2023-04-16T09:59:50.137Z,83.47
2023-04-16T10:02:17.800Z,81.18
2023-04-16T10:04:48.932Z,93.23
2023-04-16T10:07:16.792Z,94.01
2023-04-16T10:09:44.393Z,78.85
2023-04-16T10:12:13.763Z,79.67
2023-04-16T10:14:43.064Z,88.12
2023-04-16T10:17:10.982Z,87.28
2023-04-16T10:19:38.795Z,100.00
2023-04-16T10:22:06.575Z,96.25
2023-04-16T10:24:34.617Z,90.09
2023-04-16T10:27:02.551Z,74.86
2023-04-16T10:29:31.836Z,92.09
2023-04-16T10:31:59.577Z,83.83
2023-04-16T10:34:27.328Z,75.53
2023-04-16T10:36:55.525Z,89.06
2023-04-16T10:39:23.674Z,84.18
2023-04-16T10:41:51.469Z,92.80
2023-04-16T10:44:19.879Z,81.10
2023-04-16T10:46:50.505Z,83.32
2023-04-16T10:49:19.193Z,83.40
2023-04-16T10:51:53.771Z,88.34
2023-04-16T10:54:22.324Z,95.90
2023-04-16T10:56:50.668Z,99.17
2023-04-16T10:59:19.580Z,92.33
2023-04-16T11:01:47.608Z,76.85
2023-04-16T11:04:35.527Z,89.63
2023-04-16T11:07:04.097Z,91.40
2023-04-16T11:09:47.964Z,99.06
2023-04-16T11:12:16.300Z,81.71
2023-04-16T11:14:44.032Z,100.00
2023-04-16T11:17:11.701Z,87.46
2023-04-16T11:19:40.648Z,87.57
2023-04-16T11:22:08.248Z,86.75
2023-04-16T11:24:36.129Z,72.77
2023-04-16T11:27:05.157Z,65.63
2023-04-16T11:29:32.859Z,66.11
2023-04-16T11:32:00.481Z,63.87
2023-04-16T11:34:28.099Z,68.88
2023-04-16T11:36:57.216Z,63.31
2023-04-16T11:39:24.842Z,64.13
2023-04-16T11:41:52.750Z,76.23
2023-04-16T11:44:21.093Z,68.03
2023-04-16T11:46:48.999Z,57.20
2023-04-16T11:49:17.295Z,60.51
2023-04-16T11:51:45.274Z,62.27
2023-04-16T11:54:20.998Z,61.27
2023-04-16T11:56:49.301Z,58.55
2023-04-16T11:59:17.394Z,54.79
2023-04-16T12:01:47.185Z,60.20
2023-04-16T12:04:15.078Z,60.62
2023-04-16T12:06:42.851Z,70.34
2023-04-16T12:09:27.516Z,84.06
2023-04-16T12:11:55.171Z,85.59
2023-04-16T12:14:23.594Z,67.57
2023-04-16T12:16:51.473Z,87.87
2023-04-16T12:19:19.403Z,71.67
2023-04-16T12:21:47.423Z,64.46
2023-04-16T12:24:15.690Z,67.89
2023-04-16T12:26:46.477Z,76.71
2023-04-16T12:29:17.645Z,68.65
2023-04-16T12:31:45.495Z,68.38
2023-04-16T12:34:15.103Z,69.46
2023-04-16T12:36:42.834Z,65.49
2023-04-16T12:39:11.161Z,62.44
2023-04-16T12:41:39.368Z,68.90
2023-04-16T12:44:11.811Z,73.22
2023-04-16T12:46:40.383Z,68.82
2023-04-16T12:49:08.353Z,85.75
2023-04-16T12:51:36.301Z,84.60
2023-04-16T12:54:04.666Z,90.45
2023-04-16T12:56:32.375Z,82.87
2023-04-16T12:58:59.991Z,82.77
2023-04-16T13:01:28.969Z,94.44
2023-04-16T13:03:56.861Z,92.51
2023-04-16T13:06:24.735Z,97.63
2023-04-16T13:08:52.411Z,81.29
2023-04-16T13:11:20.227Z,80.01
2023-04-16T13:13:47.842Z,82.63
2023-04-16T13:16:15.520Z,95.67
2023-04-16T13:18:44.644Z,100.00
2023-04-16T13:21:12.354Z,100.00
2023-04-16T13:23:40.088Z,98.77
2023-04-16T13:26:07.834Z,93.78
2023-04-16T13:28:35.497Z,80.90
2023-04-16T13:31:05.712Z,91.25
2023-04-16T13:33:33.724Z,96.47
2023-04-16T13:36:02.714Z,84.89
2023-04-16T13:38:30.403Z,100.00
2023-04-16T13:40:58.093Z,100.00
2023-04-16T13:43:25.685Z,94.42
2023-04-16T13:45:53.305Z,100.00
2023-04-16T13:48:21.003Z,96.60
2023-04-16T13:50:48.687Z,86.63
2023-04-16T13:53:17.633Z,84.24
2023-04-16T13:55:45.286Z,75.22
2023-04-16T13:58:12.930Z,70.04
2023-04-16T14:00:40.637Z,62.55
2023-04-16T14:03:08.459Z,58.59
2023-04-16T14:05:36.311Z,63.31
2023-04-16T14:08:03.890Z,59.42
2023-04-16T14:10:33.039Z,57.55
2023-04-16T14:13:00.639Z,65.65
2023-04-16T14:15:29.945Z,64.90
2023-04-16T14:17:57.604Z,68.63
2023-04-16T14:20:25.360Z,76.36
2023-04-16T14:22:53.001Z,68.38
2023-04-16T14:25:20.675Z,61.17
2023-04-16T14:27:49.739Z,58.50
2023-04-16T14:30:17.622Z,59.73
2023-04-16T14:32:45.299Z,57.17
2023-04-16T14:35:13.036Z,57.14
2023-04-16T14:37:41.282Z,54.41
2023-04-16T14:40:09.879Z,60.79
2023-04-16T14:42:37.824Z,56.09
2023-04-16T14:45:07.721Z,55.51
2023-04-16T14:47:35.648Z,56.99
2023-04-16T14:50:03.530Z,57.75
2023-04-16T14:52:31.928Z,57.37
2023-04-16T14:54:59.744Z,54.83
2023-04-16T14:57:27.439Z,57.23
2023-04-16T14:59:55.094Z,58.48
2023-04-16T15:02:24.275Z,63.69
2023-04-16T15:04:52.022Z,63.83
2023-04-16T15:07:19.796Z,66.16
2023-04-16T15:09:47.601Z,85.08
2023-04-16T15:12:16.228Z,92.90
2023-04-16T15:14:45.126Z,92.72
2023-04-16T15:17:12.784Z,91.87
2023-04-16T15:19:41.751Z,81.27
2023-04-16T15:22:09.388Z,84.40
2023-04-16T15:24:37.000Z,100.00
2023-04-16T15:27:07.157Z,99.99
2023-04-16T15:29:35.365Z,83.81
2023-04-16T15:32:03.008Z,96.02
2023-04-16T15:34:30.664Z,82.77
2023-04-16T15:36:59.672Z,83.99
2023-04-16T15:39:27.248Z,88.38
2023-04-16T15:42:01.528Z,81.39
2023-04-16T15:44:30.975Z,68.06
2023-04-16T15:46:58.646Z,67.59
2023-04-16T15:49:26.309Z,63.98
2023-04-16T15:51:53.939Z,69.27
2023-04-16T15:54:22.926Z,71.50
2023-04-16T15:56:50.789Z,65.71
2023-04-16T15:59:18.457Z,61.43
2023-04-16T16:01:46.351Z,59.28
2023-04-16T16:04:14.321Z,68.00
2023-04-16T16:06:42.172Z,62.12
2023-04-16T16:09:10.272Z,64.49
2023-04-16T16:11:39.667Z,66.32
2023-04-16T16:14:07.349Z,63.25
2023-04-16T16:16:35.638Z,74.61
2023-04-16T16:19:03.692Z,75.33
2023-04-16T16:21:34.218Z,78.55
2023-04-16T16:24:01.834Z,82.11
2023-04-16T16:26:29.513Z,74.96
2023-04-16T16:28:58.481Z,68.65
2023-04-16T16:31:26.202Z,67.94
2023-04-16T16:33:53.838Z,77.98
2023-04-16T16:36:21.490Z,73.52
2023-04-16T16:38:49.084Z,69.46
2023-04-16T16:41:16.722Z,78.91
2023-04-16T16:43:44.359Z,78.77
2023-04-16T16:46:13.438Z,73.05
2023-04-16T16:48:41.206Z,85.33
2023-04-16T16:51:12.057Z,79.51
2023-04-16T16:53:39.711Z,78.28
2023-04-16T16:56:07.379Z,74.37
2023-04-16T16:58:35.140Z,71.73
2023-04-16T17:01:03.061Z,90.24
2023-04-16T17:03:32.174Z,100.00
2023-04-16T17:06:00.009Z,81.07
2023-04-16T17:08:28.890Z,79.08
2023-04-16T17:10:56.507Z,100.00
2023-04-16T17:13:25.198Z,79.92
2023-04-16T17:15:52.821Z,75.43
2023-04-16T17:18:20.455Z,75.23
2023-04-16T17:20:49.501Z,71.82
2023-04-16T17:23:17.200Z,71.06
2023-04-16T17:25:44.801Z,85.19
2023-04-16T17:28:12.408Z,94.70
2023-04-16T17:30:39.996Z,97.91
2023-04-16T17:33:07.732Z,100.00
2023-04-16T17:35:35.490Z,100.00
2023-04-16T17:38:04.461Z,100.00
2023-04-16T17:40:32.046Z,100.00
2023-04-16T17:42:59.676Z,100.00
2023-04-16T17:45:27.383Z,100.00
2023-04-16T17:47:55.062Z,94.73
2023-04-16T17:50:22.783Z,100.00
2023-04-16T17:52:50.739Z,100.00
2023-04-16T17:55:19.750Z,83.87
2023-04-16T17:57:47.341Z,100.00
2023-04-16T18:00:16.148Z,95.82
2023-04-16T18:02:44.094Z,91.26
2023-04-16T18:05:11.880Z,100.00
2023-04-16T18:07:39.499Z,87.08
2023-04-16T18:10:08.217Z,88.28
2023-04-16T18:12:37.459Z,100.00
2023-04-16T18:15:05.750Z,100.00
2023-04-16T18:17:33.514Z,93.91
2023-04-16T18:20:01.480Z,100.00
2023-04-16T18:22:29.316Z,99.30
2023-04-16T18:24:57.120Z,100.00
2023-04-16T18:27:24.740Z,86.89
2023-04-16T18:29:54.799Z,100.00
2023-04-16T18:32:23.018Z,94.45
2023-04-16T18:34:50.770Z,100.00
2023-04-16T18:37:18.392Z,88.43
2023-04-16T18:39:46.276Z,100.00
2023-04-16T18:42:14.224Z,100.00
2023-04-16T18:44:42.006Z,100.00
2023-04-16T18:47:11.096Z,98.62
2023-04-16T18:49:38.733Z,89.04
2023-04-16T18:52:06.706Z,90.37
2023-04-16T18:54:34.846Z,75.44
2023-04-16T18:57:02.665Z,84.35
2023-04-16T18:59:30.380Z,83.56
2023-04-16T19:01:58.038Z,92.31
2023-04-16T19:04:27.064Z,93.86
2023-04-16T19:06:54.666Z,100.00
2023-04-16T19:09:22.316Z,100.00
2023-04-16T19:11:50.624Z,100.00
2023-04-16T19:14:18.337Z,100.00
2023-04-16T19:16:46.330Z,100.00
2023-04-16T19:19:13.994Z,100.00
2023-04-16T19:21:42.989Z,98.10
2023-04-16T19:24:10.637Z,100.00
2023-04-16T19:26:38.301Z,100.00
2023-04-16T19:29:05.909Z,100.00
2023-04-16T19:31:34.740Z,100.00
2023-04-16T19:34:02.393Z,84.64
2023-04-16T19:36:30.047Z,100.00
2023-04-16T19:38:59.036Z,96.69
2023-04-16T19:41:26.610Z,100.00
2023-04-16T19:43:55.255Z,100.00
2023-04-16T19:46:22.940Z,95.22
2023-04-16T19:48:50.625Z,98.77
2023-04-16T19:51:18.221Z,85.56
2023-04-16T19:53:45.821Z,97.72
2023-04-16T19:56:15.878Z,94.28
2023-04-16T19:58:43.539Z,88.29
2023-04-16T20:01:11.392Z,89.12
2023-04-16T20:03:39.105Z,99.63
2023-04-16T20:06:07.796Z,83.73
2023-04-16T20:08:35.443Z,100.00
2023-04-16T20:11:03.034Z,100.00
2023-04-16T20:13:32.037Z,100.00
2023-04-16T20:16:01.236Z,100.00
2023-04-16T20:18:28.965Z,90.45
2023-04-16T20:20:56.590Z,100.00
2023-04-16T20:23:24.328Z,94.40
2023-04-16T20:25:52.406Z,88.50
2023-04-16T20:28:23.403Z,91.54
2023-04-16T20:30:52.425Z,87.45
2023-04-16T20:33:20.249Z,91.14
2023-04-16T20:35:49.053Z,92.91
2023-04-16T20:38:18.280Z,95.83
2023-04-16T20:41:00.528Z,95.94
2023-04-16T20:43:29.813Z,96.52
2023-04-16T20:45:59.075Z,100.00
2023-04-16T20:48:26.739Z,91.76
2023-04-16T20:50:58.818Z,100.00
2023-04-16T20:53:27.204Z,92.73
2023-04-16T20:55:55.273Z,93.23
2023-04-16T20:58:23.258Z,100.00
2023-04-16T21:00:51.695Z,100.00
2023-04-16T21:03:20.909Z,85.30
2023-04-16T21:05:49.878Z,100.00
2023-04-16T21:08:18.200Z,100.00
2023-04-16T21:10:46.175Z,100.00
2023-04-16T21:13:14.045Z,100.00
2023-04-16T21:15:42.800Z,100.00
2023-04-16T21:18:11.809Z,100.00
2023-04-16T21:20:41.096Z,100.00
2023-04-16T21:23:08.807Z,100.00
2023-04-16T21:25:36.749Z,89.96
2023-04-16T21:28:04.444Z,100.00
2023-04-16T21:30:32.106Z,96.29
2023-04-16T21:33:00.022Z,95.01
2023-04-16T21:35:27.786Z,100.00
2023-04-16T21:37:56.871Z,100.00
2023-04-16T21:40:24.810Z,91.81
2023-04-16T21:42:52.499Z,100.00
2023-04-16T21:45:20.142Z,99.20
2023-04-16T21:47:48.065Z,100.00
2023-04-16T21:50:15.974Z,88.68
2023-04-16T21:52:46.145Z,95.92
2023-04-16T21:55:15.373Z,89.17
2023-04-16T21:57:42.985Z,92.10
2023-04-16T22:00:14.145Z,80.61
2023-04-16T22:02:42.635Z,100.00
2023-04-16T22:05:11.215Z,96.04
2023-04-16T22:07:39.270Z,100.00
2023-04-16T22:10:08.647Z,100.00
2023-04-16T22:12:39.805Z,90.64
2023-04-16T22:15:09.198Z,83.87
2023-04-16T22:17:37.096Z,95.65
2023-04-16T22:20:08.565Z,99.02
2023-04-16T22:22:36.552Z,94.13
2023-04-16T22:25:04.338Z,97.50
2023-04-16T22:27:32.232Z,100.00
2023-04-16T22:30:01.678Z,100.00
2023-04-16T22:32:30.213Z,93.39
2023-04-16T22:34:58.145Z,100.00
2023-04-16T22:37:25.900Z,100.00
2023-04-16T22:39:53.624Z,100.00
2023-04-16T22:42:21.499Z,100.00
2023-04-16T22:44:49.333Z,92.88
2023-04-16T22:47:18.535Z,100.00
2023-04-16T22:49:47.395Z,90.28
2023-04-16T22:52:15.372Z,91.09
2023-04-16T22:54:43.200Z,86.56
2023-04-16T22:57:10.901Z,91.26
2023-04-16T22:59:38.620Z,96.74
2023-04-16T23:02:06.382Z,98.82
2023-04-16T23:04:35.571Z,100.00
2023-04-16T23:07:03.278Z,84.44
2023-04-16T23:09:31.002Z,95.67
2023-04-16T23:11:58.664Z,89.67
2023-04-16T23:14:26.600Z,93.41
2023-04-16T23:16:54.190Z,91.06
2023-04-16T23:19:21.804Z,100.00
2023-04-16T23:21:50.998Z,92.06
2023-04-16T23:24:18.767Z,82.71
2023-04-16T23:26:46.399Z,97.98
2023-04-16T23:29:14.058Z,90.58
2023-04-16T23:31:41.770Z,100.00
2023-04-16T23:34:09.430Z,100.00
2023-04-16T23:36:37.027Z,99.21
2023-04-16T23:39:06.059Z,99.78
2023-04-16T23:41:33.704Z,97.26
2023-04-16T23:44:01.341Z,88.90
2023-04-16T23:46:29.031Z,79.10
2023-04-16T23:48:56.735Z,75.43
2023-04-16T23:51:24.355Z,100.00
2023-04-16T23:53:51.956Z,100.00
2023-04-16T23:56:21.121Z,100.00
2023-04-16T23:58:48.752Z,95.14
